sensor_id;sensor_type;location;lat;lon;timestamp;temperature;humidity
19892;DHT22;10108;50.142;8.724;2024-01-30T00:01:26;4.20;99.90
19892;DHT22;10108;50.142;8.724;2024-01-30T00:04:12;4.10;99.90
19892;DHT22;10108;50.142;8.724;2024-01-30T00:06:59;4.10;99.90
19892;DHT22;10108;50.142;8.724;2024-01-30T00:09:47;4.10;99.90
19892;DHT22;10108;50.142;8.724;2024-01-30T00:12:34;4.10;99.90
19892;DHT22;10108;50.142;8.724;2024-01-30T00:15:20;4.10;99.90
19892;DHT22;10108;50.142;8.724;2024-01-30T00:18:07;4.10;99.90
19892;DHT22;10108;50.142;8.724;2024-01-30T00:20:53;4.20;99.90
19892;DHT22;10108;50.142;8.724;2024-01-30T00:23:40;4.20;99.90
19892;DHT22;10108;50.142;8.724;2024-01-30T00:26:26;4.20;99.90
19892;DHT22;10108;50.142;8.724;2024-01-30T00:29:12;4.10;99.90
19892;DHT22;10108;50.142;8.724;2024-01-30T00:32:05;4.10;99.90
19892;DHT22;10108;50.142;8.724;2024-01-30T00:34:52;4.00;99.90
19892;DHT22;10108;50.142;8.724;2024-01-30T00:37:38;4.00;99.90
19892;DHT22;10108;50.142;8.724;2024-01-30T00:40:25;3.90;99.90
19892;DHT22;10108;50.142;8.724;2024-01-30T00:43:11;3.80;99.90
19892;DHT22;10108;50.142;8.724;2024-01-30T00:45:59;3.80;99.90
19892;DHT22;10108;50.142;8.724;2024-01-30T00:48:45;3.70;99.90
19892;DHT22;10108;50.142;8.724;2024-01-30T00:51:31;3.70;99.90
19892;DHT22;10108;50.142;8.724;2024-01-30T00:54:18;3.70;99.90
19892;DHT22;10108;50.142;8.724;2024-01-30T00:57:04;3.80;99.90
19892;DHT22;10108;50.142;8.724;2024-01-30T00:59:51;3.80;99.90
19892;DHT22;10108;50.142;8.724;2024-01-30T01:02:37;3.90;99.90
19892;DHT22;10108;50.142;8.724;2024-01-30T01:05:25;3.90;99.90
19892;DHT22;10108;50.142;8.724;2024-01-30T01:08:11;3.90;99.90
19892;DHT22;10108;50.142;8.724;2024-01-30T01:10:58;3.90;99.90
19892;DHT22;10108;50.142;8.724;2024-01-30T01:13:44;3.90;99.90
19892;DHT22;10108;50.142;8.724;2024-01-30T01:16:31;3.90;99.90
19892;DHT22;10108;50.142;8.724;2024-01-30T01:19:17;3.90;99.90
19892;DHT22;10108;50.142;8.724;2024-01-30T01:22:04;3.90;99.90
19892;DHT22;10108;50.142;8.724;2024-01-30T01:24:50;3.90;99.90
19892;DHT22;10108;50.142;8.724;2024-01-30T01:27:37;3.90;99.90
19892;DHT22;10108;50.142;8.724;2024-01-30T01:30:27;3.90;99.90
19892;DHT22;10108;50.142;8.724;2024-01-30T01:33:15;3.80;99.90
19892;DHT22;10108;50.142;8.724;2024-01-30T01:36:01;3.80;99.90
19892;DHT22;10108;50.142;8.724;2024-01-30T01:38:48;3.80;99.90
19892;DHT22;10108;50.142;8.724;2024-01-30T01:41:35;3.70;99.90
19892;DHT22;10108;50.142;8.724;2024-01-30T01:44:21;3.70;99.90
19892;DHT22;10108;50.142;8.724;2024-01-30T01:47:08;3.70;99.90
19892;DHT22;10108;50.142;8.724;2024-01-30T01:49:54;3.70;99.90
19892;DHT22;10108;50.142;8.724;2024-01-30T01:52:41;3.70;99.90
19892;DHT22;10108;50.142;8.724;2024-01-30T01:55:29;3.60;99.90
19892;DHT22;10108;50.142;8.724;2024-01-30T01:58:16;3.60;99.90
19892;DHT22;10108;50.142;8.724;2024-01-30T02:01:04;3.60;99.90
19892;DHT22;10108;50.142;8.724;2024-01-30T02:03:51;3.60;99.90
19892;DHT22;10108;50.142;8.724;2024-01-30T02:06:38;3.60;99.90
19892;DHT22;10108;50.142;8.724;2024-01-30T02:09:24;3.70;99.90
19892;DHT22;10108;50.142;8.724;2024-01-30T02:12:11;3.70;99.90
19892;DHT22;10108;50.142;8.724;2024-01-30T02:14:57;3.60;99.90
19892;DHT22;10108;50.142;8.724;2024-01-30T02:17:44;3.60;99.90
19892;DHT22;10108;50.142;8.724;2024-01-30T02:20:31;3.50;99.90
19892;DHT22;10108;50.142;8.724;2024-01-30T02:23:20;3.50;99.90
19892;DHT22;10108;50.142;8.724;2024-01-30T02:26:08;3.50;99.90
19892;DHT22;10108;50.142;8.724;2024-01-30T02:28:55;3.50;99.90
19892;DHT22;10108;50.142;8.724;2024-01-30T02:31:41;3.50;99.90
19892;DHT22;10108;50.142;8.724;2024-01-30T02:34:28;3.50;99.90
19892;DHT22;10108;50.142;8.724;2024-01-30T02:37:14;3.50;99.90
19892;DHT22;10108;50.142;8.724;2024-01-30T02:40:00;3.50;99.90
19892;DHT22;10108;50.142;8.724;2024-01-30T02:42:47;3.50;99.90
19892;DHT22;10108;50.142;8.724;2024-01-30T02:45:33;3.50;99.90
19892;DHT22;10108;50.142;8.724;2024-01-30T02:48:20;3.40;99.90
19892;DHT22;10108;50.142;8.724;2024-01-30T02:51:06;3.40;99.90
19892;DHT22;10108;50.142;8.724;2024-01-30T02:53:52;3.30;99.90
19892;DHT22;10108;50.142;8.724;2024-01-30T02:56:39;3.30;99.90
19892;DHT22;10108;50.142;8.724;2024-01-30T02:59:25;3.30;99.90
19892;DHT22;10108;50.142;8.724;2024-01-30T03:02:12;3.20;99.90
19892;DHT22;10108;50.142;8.724;2024-01-30T03:04:59;3.30;99.90
19892;DHT22;10108;50.142;8.724;2024-01-30T03:07:45;3.30;99.90
19892;DHT22;10108;50.142;8.724;2024-01-30T03:10:32;3.30;99.90
19892;DHT22;10108;50.142;8.724;2024-01-30T03:13:18;3.30;99.90
19892;DHT22;10108;50.142;8.724;2024-01-30T03:16:05;3.20;99.90
19892;DHT22;10108;50.142;8.724;2024-01-30T03:18:52;3.20;99.90
19892;DHT22;10108;50.142;8.724;2024-01-30T03:21:38;3.20;99.90
19892;DHT22;10108;50.142;8.724;2024-01-30T03:24:24;3.30;99.90
19892;DHT22;10108;50.142;8.724;2024-01-30T03:27:11;3.20;99.90
19892;DHT22;10108;50.142;8.724;2024-01-30T03:29:57;3.20;99.90
19892;DHT22;10108;50.142;8.724;2024-01-30T03:32:44;3.20;99.90
19892;DHT22;10108;50.142;8.724;2024-01-30T03:35:31;3.20;99.90
19892;DHT22;10108;50.142;8.724;2024-01-30T03:38:17;3.20;99.90
19892;DHT22;10108;50.142;8.724;2024-01-30T03:41:07;3.20;99.90
19892;DHT22;10108;50.142;8.724;2024-01-30T03:43:54;3.20;99.90
19892;DHT22;10108;50.142;8.724;2024-01-30T03:46:41;3.20;99.90
19892;DHT22;10108;50.142;8.724;2024-01-30T03:49:27;3.20;99.90
19892;DHT22;10108;50.142;8.724;2024-01-30T03:52:13;3.10;99.90
19892;DHT22;10108;50.142;8.724;2024-01-30T03:55:00;3.10;99.90
19892;DHT22;10108;50.142;8.724;2024-01-30T03:57:46;3.10;99.90
19892;DHT22;10108;50.142;8.724;2024-01-30T04:00:33;3.10;99.90
19892;DHT22;10108;50.142;8.724;2024-01-30T04:03:19;3.10;99.90
19892;DHT22;10108;50.142;8.724;2024-01-30T04:06:06;3.20;99.90
19892;DHT22;10108;50.142;8.724;2024-01-30T04:08:52;3.20;99.90
19892;DHT22;10108;50.142;8.724;2024-01-30T04:11:39;3.20;99.90
19892;DHT22;10108;50.142;8.724;2024-01-30T04:14:25;3.20;99.90
19892;DHT22;10108;50.142;8.724;2024-01-30T04:17:12;3.10;99.90
19892;DHT22;10108;50.142;8.724;2024-01-30T04:19:58;3.10;99.90
19892;DHT22;10108;50.142;8.724;2024-01-30T04:22:45;3.10;99.90
19892;DHT22;10108;50.142;8.724;2024-01-30T04:25:32;3.30;99.90
19892;DHT22;10108;50.142;8.724;2024-01-30T04:28:18;3.40;99.90
19892;DHT22;10108;50.142;8.724;2024-01-30T04:31:05;3.40;99.90
19892;DHT22;10108;50.142;8.724;2024-01-30T04:33:51;3.40;99.90
19892;DHT22;10108;50.142;8.724;2024-01-30T04:36:37;3.30;99.90
19892;DHT22;10108;50.142;8.724;2024-01-30T04:39:24;3.20;99.90
19892;DHT22;10108;50.142;8.724;2024-01-30T04:42:10;3.20;99.90
19892;DHT22;10108;50.142;8.724;2024-01-30T04:44:57;3.10;99.90
19892;DHT22;10108;50.142;8.724;2024-01-30T04:47:44;3.00;99.90
19892;DHT22;10108;50.142;8.724;2024-01-30T04:50:30;3.00;99.90
19892;DHT22;10108;50.142;8.724;2024-01-30T04:53:17;3.00;99.90
19892;DHT22;10108;50.142;8.724;2024-01-30T04:56:04;2.90;99.90
19892;DHT22;10108;50.142;8.724;2024-01-30T04:58:51;2.90;99.90
19892;DHT22;10108;50.142;8.724;2024-01-30T05:01:37;2.90;99.90
19892;DHT22;10108;50.142;8.724;2024-01-30T05:04:24;2.90;99.90
19892;DHT22;10108;50.142;8.724;2024-01-30T05:07:10;2.80;99.90
19892;DHT22;10108;50.142;8.724;2024-01-30T05:09:57;2.80;99.90
19892;DHT22;10108;50.142;8.724;2024-01-30T05:12:43;2.80;99.90
19892;DHT22;10108;50.142;8.724;2024-01-30T05:15:29;2.80;99.90
19892;DHT22;10108;50.142;8.724;2024-01-30T05:18:16;2.80;99.90
19892;DHT22;10108;50.142;8.724;2024-01-30T05:21:03;2.90;99.90
19892;DHT22;10108;50.142;8.724;2024-01-30T05:23:49;3.00;99.90
19892;DHT22;10108;50.142;8.724;2024-01-30T05:26:36;3.00;99.90
19892;DHT22;10108;50.142;8.724;2024-01-30T05:29:22;3.10;99.90
19892;DHT22;10108;50.142;8.724;2024-01-30T05:32:09;3.10;99.90
19892;DHT22;10108;50.142;8.724;2024-01-30T05:34:56;3.00;99.90
19892;DHT22;10108;50.142;8.724;2024-01-30T05:37:43;3.00;99.90
19892;DHT22;10108;50.142;8.724;2024-01-30T05:40:30;2.90;99.90
19892;DHT22;10108;50.142;8.724;2024-01-30T05:43:17;2.90;99.90
19892;DHT22;10108;50.142;8.724;2024-01-30T05:46:03;2.90;99.90
19892;DHT22;10108;50.142;8.724;2024-01-30T05:48:50;2.80;99.90
19892;DHT22;10108;50.142;8.724;2024-01-30T05:51:36;2.80;99.90
19892;DHT22;10108;50.142;8.724;2024-01-30T05:54:22;2.80;99.90
19892;DHT22;10108;50.142;8.724;2024-01-30T05:57:09;2.80;99.90
19892;DHT22;10108;50.142;8.724;2024-01-30T05:59:55;2.80;99.90
19892;DHT22;10108;50.142;8.724;2024-01-30T06:02:42;2.80;99.90
19892;DHT22;10108;50.142;8.724;2024-01-30T06:05:28;2.90;99.90
19892;DHT22;10108;50.142;8.724;2024-01-30T06:08:15;2.90;99.90
19892;DHT22;10108;50.142;8.724;2024-01-30T06:11:01;3.00;99.90
19892;DHT22;10108;50.142;8.724;2024-01-30T06:13:47;3.00;99.90
19892;DHT22;10108;50.142;8.724;2024-01-30T06:16:34;3.10;99.90
19892;DHT22;10108;50.142;8.724;2024-01-30T06:19:20;3.10;99.90
19892;DHT22;10108;50.142;8.724;2024-01-30T06:22:07;3.20;99.90
19892;DHT22;10108;50.142;8.724;2024-01-30T06:24:53;3.20;99.90
19892;DHT22;10108;50.142;8.724;2024-01-30T06:27:40;3.20;99.90
19892;DHT22;10108;50.142;8.724;2024-01-30T06:30:26;3.20;99.90
19892;DHT22;10108;50.142;8.724;2024-01-30T06:33:13;3.20;99.90
19892;DHT22;10108;50.142;8.724;2024-01-30T06:36:00;3.20;99.90
19892;DHT22;10108;50.142;8.724;2024-01-30T06:38:46;3.30;99.90
19892;DHT22;10108;50.142;8.724;2024-01-30T06:41:32;3.40;99.90
19892;DHT22;10108;50.142;8.724;2024-01-30T06:44:19;3.40;99.90
19892;DHT22;10108;50.142;8.724;2024-01-30T06:47:05;3.30;99.90
19892;DHT22;10108;50.142;8.724;2024-01-30T06:49:52;3.20;99.90
19892;DHT22;10108;50.142;8.724;2024-01-30T06:52:38;3.10;99.90
19892;DHT22;10108;50.142;8.724;2024-01-30T06:55:25;3.10;99.90
19892;DHT22;10108;50.142;8.724;2024-01-30T06:58:11;3.00;99.90
19892;DHT22;10108;50.142;8.724;2024-01-30T07:00:58;3.10;99.90
19892;DHT22;10108;50.142;8.724;2024-01-30T07:03:44;3.10;99.90
19892;DHT22;10108;50.142;8.724;2024-01-30T07:06:31;3.00;99.90
19892;DHT22;10108;50.142;8.724;2024-01-30T07:09:17;3.00;99.90
19892;DHT22;10108;50.142;8.724;2024-01-30T07:12:04;3.00;99.90
19892;DHT22;10108;50.142;8.724;2024-01-30T07:14:50;3.00;99.90
19892;DHT22;10108;50.142;8.724;2024-01-30T07:17:37;2.90;99.90
19892;DHT22;10108;50.142;8.724;2024-01-30T07:20:23;2.90;99.90
19892;DHT22;10108;50.142;8.724;2024-01-30T07:23:10;2.90;99.90
19892;DHT22;10108;50.142;8.724;2024-01-30T07:26:00;2.90;99.90
19892;DHT22;10108;50.142;8.724;2024-01-30T07:28:47;2.80;99.90
19892;DHT22;10108;50.142;8.724;2024-01-30T07:31:33;2.90;99.90
19892;DHT22;10108;50.142;8.724;2024-01-30T07:34:20;2.90;99.90
19892;DHT22;10108;50.142;8.724;2024-01-30T07:37:06;2.80;99.90
19892;DHT22;10108;50.142;8.724;2024-01-30T07:39:54;2.80;99.90
19892;DHT22;10108;50.142;8.724;2024-01-30T07:42:42;2.80;99.90
19892;DHT22;10108;50.142;8.724;2024-01-30T07:45:29;2.80;99.90
19892;DHT22;10108;50.142;8.724;2024-01-30T07:48:18;2.80;99.90
19892;DHT22;10108;50.142;8.724;2024-01-30T07:51:05;2.90;99.90
19892;DHT22;10108;50.142;8.724;2024-01-30T07:53:51;3.00;99.90
19892;DHT22;10108;50.142;8.724;2024-01-30T07:56:38;3.00;99.90
19892;DHT22;10108;50.142;8.724;2024-01-30T07:59:24;3.00;99.90
19892;DHT22;10108;50.142;8.724;2024-01-30T08:02:12;3.00;99.90
19892;DHT22;10108;50.142;8.724;2024-01-30T08:04:59;3.00;99.90
19892;DHT22;10108;50.142;8.724;2024-01-30T08:07:45;3.10;99.90
19892;DHT22;10108;50.142;8.724;2024-01-30T08:10:32;3.10;99.90
19892;DHT22;10108;50.142;8.724;2024-01-30T08:13:18;3.10;99.90
19892;DHT22;10108;50.142;8.724;2024-01-30T08:16:05;3.20;99.90
19892;DHT22;10108;50.142;8.724;2024-01-30T08:18:51;3.20;99.90
19892;DHT22;10108;50.142;8.724;2024-01-30T08:21:39;3.20;99.90
19892;DHT22;10108;50.142;8.724;2024-01-30T08:24:26;3.30;99.90
19892;DHT22;10108;50.142;8.724;2024-01-30T08:27:12;3.40;99.90
19892;DHT22;10108;50.142;8.724;2024-01-30T08:29:59;3.40;99.90
19892;DHT22;10108;50.142;8.724;2024-01-30T08:32:45;3.50;99.90
19892;DHT22;10108;50.142;8.724;2024-01-30T08:35:31;3.60;99.90
19892;DHT22;10108;50.142;8.724;2024-01-30T08:38:19;3.50;99.90
19892;DHT22;10108;50.142;8.724;2024-01-30T08:41:07;3.50;99.90
19892;DHT22;10108;50.142;8.724;2024-01-30T08:43:53;3.50;99.90
19892;DHT22;10108;50.142;8.724;2024-01-30T08:46:40;3.50;99.90
19892;DHT22;10108;50.142;8.724;2024-01-30T08:49:27;3.50;99.90
19892;DHT22;10108;50.142;8.724;2024-01-30T08:52:13;3.60;99.90
19892;DHT22;10108;50.142;8.724;2024-01-30T08:55:00;3.70;99.90
19892;DHT22;10108;50.142;8.724;2024-01-30T08:57:46;3.70;99.90
19892;DHT22;10108;50.142;8.724;2024-01-30T09:00:33;3.80;99.90
19892;DHT22;10108;50.142;8.724;2024-01-30T09:03:19;3.80;99.90
19892;DHT22;10108;50.142;8.724;2024-01-30T09:06:09;3.90;99.90
19892;DHT22;10108;50.142;8.724;2024-01-30T09:08:55;4.00;99.90
19892;DHT22;10108;50.142;8.724;2024-01-30T09:11:44;4.20;99.90
19892;DHT22;10108;50.142;8.724;2024-01-30T09:14:30;4.30;99.90
19892;DHT22;10108;50.142;8.724;2024-01-30T09:17:17;4.30;99.90
19892;DHT22;10108;50.142;8.724;2024-01-30T09:20:04;4.40;99.90
19892;DHT22;10108;50.142;8.724;2024-01-30T09:22:50;4.50;99.90
19892;DHT22;10108;50.142;8.724;2024-01-30T09:25:37;4.60;99.90
19892;DHT22;10108;50.142;8.724;2024-01-30T09:28:23;4.60;99.90
19892;DHT22;10108;50.142;8.724;2024-01-30T09:31:10;4.60;99.90
19892;DHT22;10108;50.142;8.724;2024-01-30T09:33:57;4.60;99.90
19892;DHT22;10108;50.142;8.724;2024-01-30T09:36:43;4.60;99.90
19892;DHT22;10108;50.142;8.724;2024-01-30T09:39:30;4.70;99.90
19892;DHT22;10108;50.142;8.724;2024-01-30T09:42:36;4.70;99.90
19892;DHT22;10108;50.142;8.724;2024-01-30T09:45:24;4.70;99.90
19892;DHT22;10108;50.142;8.724;2024-01-30T09:48:12;4.80;99.90
19892;DHT22;10108;50.142;8.724;2024-01-30T09:50:58;4.90;99.90
19892;DHT22;10108;50.142;8.724;2024-01-30T09:53:44;4.90;99.90
19892;DHT22;10108;50.142;8.724;2024-01-30T09:56:31;5.00;99.90
19892;DHT22;10108;50.142;8.724;2024-01-30T09:59:18;5.10;99.90
19892;DHT22;10108;50.142;8.724;2024-01-30T10:02:04;5.10;99.90
19892;DHT22;10108;50.142;8.724;2024-01-30T10:04:51;5.20;99.90
19892;DHT22;10108;50.142;8.724;2024-01-30T10:07:38;5.20;99.90
19892;DHT22;10108;50.142;8.724;2024-01-30T10:10:24;5.30;99.90
19892;DHT22;10108;50.142;8.724;2024-01-30T10:13:11;5.30;99.90
19892;DHT22;10108;50.142;8.724;2024-01-30T10:15:57;5.40;99.90
19892;DHT22;10108;50.142;8.724;2024-01-30T10:18:44;5.50;99.90
19892;DHT22;10108;50.142;8.724;2024-01-30T10:21:31;5.50;99.90
19892;DHT22;10108;50.142;8.724;2024-01-30T10:24:17;5.50;99.90
19892;DHT22;10108;50.142;8.724;2024-01-30T10:27:05;5.60;99.90
19892;DHT22;10108;50.142;8.724;2024-01-30T10:29:52;5.60;99.90
19892;DHT22;10108;50.142;8.724;2024-01-30T10:32:38;5.70;99.90
19892;DHT22;10108;50.142;8.724;2024-01-30T10:35:25;5.70;99.90
19892;DHT22;10108;50.142;8.724;2024-01-30T10:38:12;5.80;99.90
19892;DHT22;10108;50.142;8.724;2024-01-30T10:41:01;5.80;99.90
19892;DHT22;10108;50.142;8.724;2024-01-30T10:44:00;5.80;99.90
19892;DHT22;10108;50.142;8.724;2024-01-30T10:46:53;5.90;99.90
19892;DHT22;10108;50.142;8.724;2024-01-30T10:49:42;5.90;99.90
19892;DHT22;10108;50.142;8.724;2024-01-30T10:52:29;6.00;99.90
19892;DHT22;10108;50.142;8.724;2024-01-30T10:55:18;6.00;99.90
19892;DHT22;10108;50.142;8.724;2024-01-30T10:58:04;6.10;99.90
19892;DHT22;10108;50.142;8.724;2024-01-30T11:00:51;6.10;99.90
19892;DHT22;10108;50.142;8.724;2024-01-30T11:03:38;6.10;99.90
19892;DHT22;10108;50.142;8.724;2024-01-30T11:06:25;6.10;99.90
19892;DHT22;10108;50.142;8.724;2024-01-30T11:09:11;6.10;99.90
19892;DHT22;10108;50.142;8.724;2024-01-30T11:11:59;6.10;99.90
19892;DHT22;10108;50.142;8.724;2024-01-30T11:14:49;6.20;99.90
19892;DHT22;10108;50.142;8.724;2024-01-30T11:17:54;6.20;99.90
19892;DHT22;10108;50.142;8.724;2024-01-30T11:20:46;6.30;99.90
19892;DHT22;10108;50.142;8.724;2024-01-30T11:23:34;6.40;99.90
19892;DHT22;10108;50.142;8.724;2024-01-30T11:26:27;6.50;99.90
19892;DHT22;10108;50.142;8.724;2024-01-30T11:29:14;6.50;99.90
19892;DHT22;10108;50.142;8.724;2024-01-30T11:32:01;6.60;99.90
19892;DHT22;10108;50.142;8.724;2024-01-30T11:34:49;6.60;99.90
19892;DHT22;10108;50.142;8.724;2024-01-30T11:37:37;6.70;99.90
19892;DHT22;10108;50.142;8.724;2024-01-30T11:40:30;6.70;99.90
19892;DHT22;10108;50.142;8.724;2024-01-30T11:43:17;6.80;99.90
19892;DHT22;10108;50.142;8.724;2024-01-30T11:46:07;6.80;99.90
19892;DHT22;10108;50.142;8.724;2024-01-30T11:48:53;6.90;99.90
19892;DHT22;10108;50.142;8.724;2024-01-30T11:51:40;6.90;99.90
19892;DHT22;10108;50.142;8.724;2024-01-30T11:54:26;7.00;99.90
19892;DHT22;10108;50.142;8.724;2024-01-30T11:57:13;7.00;99.90
19892;DHT22;10108;50.142;8.724;2024-01-30T11:59:59;7.10;99.90
19892;DHT22;10108;50.142;8.724;2024-01-30T12:02:50;7.20;99.90
19892;DHT22;10108;50.142;8.724;2024-01-30T12:05:36;7.20;99.90
19892;DHT22;10108;50.142;8.724;2024-01-30T12:08:31;7.20;99.90
19892;DHT22;10108;50.142;8.724;2024-01-30T12:11:22;7.30;99.90
19892;DHT22;10108;50.142;8.724;2024-01-30T12:14:16;7.30;99.90
19892;DHT22;10108;50.142;8.724;2024-01-30T12:17:03;7.20;99.90
19892;DHT22;10108;50.142;8.724;2024-01-30T12:19:50;7.20;99.90
19892;DHT22;10108;50.142;8.724;2024-01-30T12:22:44;7.20;99.90
19892;DHT22;10108;50.142;8.724;2024-01-30T12:25:30;7.20;99.90
19892;DHT22;10108;50.142;8.724;2024-01-30T12:28:17;7.20;99.90
19892;DHT22;10108;50.142;8.724;2024-01-30T12:31:04;7.20;99.90
19892;DHT22;10108;50.142;8.724;2024-01-30T12:33:50;7.30;99.90
19892;DHT22;10108;50.142;8.724;2024-01-30T12:36:36;7.30;99.90
19892;DHT22;10108;50.142;8.724;2024-01-30T12:39:23;7.30;99.90
19892;DHT22;10108;50.142;8.724;2024-01-30T12:42:10;7.40;99.90
19892;DHT22;10108;50.142;8.724;2024-01-30T12:44:59;7.40;99.90
19892;DHT22;10108;50.142;8.724;2024-01-30T12:47:45;7.50;99.90
19892;DHT22;10108;50.142;8.724;2024-01-30T12:50:32;7.50;99.90
19892;DHT22;10108;50.142;8.724;2024-01-30T12:53:18;7.50;99.90
19892;DHT22;10108;50.142;8.724;2024-01-30T12:56:05;7.50;99.90
19892;DHT22;10108;50.142;8.724;2024-01-30T12:58:54;7.50;99.90
19892;DHT22;10108;50.142;8.724;2024-01-30T13:01:40;7.60;99.90
19892;DHT22;10108;50.142;8.724;2024-01-30T13:04:27;7.60;99.90
19892;DHT22;10108;50.142;8.724;2024-01-30T13:07:14;7.60;99.90
19892;DHT22;10108;50.142;8.724;2024-01-30T13:10:01;7.60;99.90
19892;DHT22;10108;50.142;8.724;2024-01-30T13:12:49;7.60;99.90
19892;DHT22;10108;50.142;8.724;2024-01-30T13:15:36;7.70;99.90
19892;DHT22;10108;50.142;8.724;2024-01-30T13:18:22;7.70;99.90
19892;DHT22;10108;50.142;8.724;2024-01-30T13:21:08;7.70;99.90
19892;DHT22;10108;50.142;8.724;2024-01-30T13:23:55;7.80;99.90
19892;DHT22;10108;50.142;8.724;2024-01-30T13:26:42;7.80;99.90
19892;DHT22;10108;50.142;8.724;2024-01-30T13:29:29;7.80;99.90
19892;DHT22;10108;50.142;8.724;2024-01-30T13:32:16;7.80;99.90
19892;DHT22;10108;50.142;8.724;2024-01-30T13:35:02;7.80;99.90
19892;DHT22;10108;50.142;8.724;2024-01-30T13:37:49;7.80;99.90
19892;DHT22;10108;50.142;8.724;2024-01-30T13:40:36;7.80;99.90
19892;DHT22;10108;50.142;8.724;2024-01-30T13:43:22;7.80;99.90
19892;DHT22;10108;50.142;8.724;2024-01-30T13:46:08;7.70;99.90
19892;DHT22;10108;50.142;8.724;2024-01-30T13:48:55;7.80;99.90
19892;DHT22;10108;50.142;8.724;2024-01-30T13:51:41;7.70;99.90
19892;DHT22;10108;50.142;8.724;2024-01-30T13:54:28;7.70;99.90
19892;DHT22;10108;50.142;8.724;2024-01-30T13:57:15;7.70;99.90
19892;DHT22;10108;50.142;8.724;2024-01-30T14:00:03;7.70;99.90
19892;DHT22;10108;50.142;8.724;2024-01-30T14:02:59;7.70;99.90
19892;DHT22;10108;50.142;8.724;2024-01-30T14:05:46;7.80;99.90
19892;DHT22;10108;50.142;8.724;2024-01-30T14:08:32;7.80;99.90
19892;DHT22;10108;50.142;8.724;2024-01-30T14:11:19;7.80;99.90
19892;DHT22;10108;50.142;8.724;2024-01-30T14:14:05;7.80;99.90
19892;DHT22;10108;50.142;8.724;2024-01-30T14:16:51;7.80;99.90
19892;DHT22;10108;50.142;8.724;2024-01-30T14:19:38;7.90;99.90
19892;DHT22;10108;50.142;8.724;2024-01-30T14:22:24;7.80;99.90
19892;DHT22;10108;50.142;8.724;2024-01-30T14:25:11;7.80;99.90
19892;DHT22;10108;50.142;8.724;2024-01-30T14:27:58;7.80;99.90
19892;DHT22;10108;50.142;8.724;2024-01-30T14:30:45;7.90;99.90
19892;DHT22;10108;50.142;8.724;2024-01-30T14:33:31;7.90;99.90
19892;DHT22;10108;50.142;8.724;2024-01-30T14:36:18;7.90;99.90
19892;DHT22;10108;50.142;8.724;2024-01-30T14:39:04;7.90;99.90
19892;DHT22;10108;50.142;8.724;2024-01-30T14:41:52;7.90;99.90
19892;DHT22;10108;50.142;8.724;2024-01-30T14:44:39;7.90;99.90
19892;DHT22;10108;50.142;8.724;2024-01-30T14:47:26;7.90;99.90
19892;DHT22;10108;50.142;8.724;2024-01-30T14:50:12;7.80;99.90
19892;DHT22;10108;50.142;8.724;2024-01-30T14:52:59;7.80;99.90
19892;DHT22;10108;50.142;8.724;2024-01-30T14:55:45;7.80;99.90
19892;DHT22;10108;50.142;8.724;2024-01-30T14:58:32;7.80;99.90
19892;DHT22;10108;50.142;8.724;2024-01-30T15:01:18;7.80;99.90
19892;DHT22;10108;50.142;8.724;2024-01-30T15:04:05;7.80;99.90
19892;DHT22;10108;50.142;8.724;2024-01-30T15:06:51;7.80;99.90
19892;DHT22;10108;50.142;8.724;2024-01-30T15:09:38;7.80;99.90
19892;DHT22;10108;50.142;8.724;2024-01-30T15:12:24;7.80;99.90
19892;DHT22;10108;50.142;8.724;2024-01-30T15:15:11;7.80;99.90
19892;DHT22;10108;50.142;8.724;2024-01-30T15:17:58;7.80;99.90
19892;DHT22;10108;50.142;8.724;2024-01-30T15:20:44;7.80;99.90
19892;DHT22;10108;50.142;8.724;2024-01-30T15:23:30;7.80;99.90
19892;DHT22;10108;50.142;8.724;2024-01-30T15:26:17;7.80;99.90
19892;DHT22;10108;50.142;8.724;2024-01-30T15:29:03;7.80;99.90
19892;DHT22;10108;50.142;8.724;2024-01-30T15:31:50;7.80;99.90
19892;DHT22;10108;50.142;8.724;2024-01-30T15:34:37;7.80;99.90
19892;DHT22;10108;50.142;8.724;2024-01-30T15:37:23;7.80;99.90
19892;DHT22;10108;50.142;8.724;2024-01-30T15:40:11;7.80;99.90
19892;DHT22;10108;50.142;8.724;2024-01-30T15:42:57;7.70;99.90
19892;DHT22;10108;50.142;8.724;2024-01-30T15:45:44;7.80;99.90
19892;DHT22;10108;50.142;8.724;2024-01-30T15:48:30;7.70;99.90
19892;DHT22;10108;50.142;8.724;2024-01-30T15:51:17;7.70;99.90
19892;DHT22;10108;50.142;8.724;2024-01-30T15:54:03;7.70;99.90
19892;DHT22;10108;50.142;8.724;2024-01-30T15:56:49;7.70;99.90
19892;DHT22;10108;50.142;8.724;2024-01-30T15:59:36;7.70;99.90
19892;DHT22;10108;50.142;8.724;2024-01-30T16:02:23;7.70;99.90
19892;DHT22;10108;50.142;8.724;2024-01-30T16:05:09;7.70;99.90
19892;DHT22;10108;50.142;8.724;2024-01-30T16:07:57;7.70;99.90
19892;DHT22;10108;50.142;8.724;2024-01-30T16:10:43;7.70;99.90
19892;DHT22;10108;50.142;8.724;2024-01-30T16:13:30;7.70;99.90
19892;DHT22;10108;50.142;8.724;2024-01-30T16:16:16;7.70;99.90
19892;DHT22;10108;50.142;8.724;2024-01-30T16:19:03;7.70;99.90
19892;DHT22;10108;50.142;8.724;2024-01-30T16:21:49;7.70;99.90
19892;DHT22;10108;50.142;8.724;2024-01-30T16:24:36;7.70;99.90
19892;DHT22;10108;50.142;8.724;2024-01-30T16:27:22;7.70;99.90
19892;DHT22;10108;50.142;8.724;2024-01-30T16:30:09;7.60;99.90
19892;DHT22;10108;50.142;8.724;2024-01-30T16:32:55;7.70;99.90
19892;DHT22;10108;50.142;8.724;2024-01-30T16:35:42;7.60;99.90
19892;DHT22;10108;50.142;8.724;2024-01-30T16:38:29;7.60;99.90
19892;DHT22;10108;50.142;8.724;2024-01-30T16:41:15;7.60;99.90
19892;DHT22;10108;50.142;8.724;2024-01-30T16:44:02;7.50;99.90
19892;DHT22;10108;50.142;8.724;2024-01-30T16:46:49;7.50;99.90
19892;DHT22;10108;50.142;8.724;2024-01-30T16:49:36;7.50;99.90
19892;DHT22;10108;50.142;8.724;2024-01-30T16:52:22;7.40;99.90
19892;DHT22;10108;50.142;8.724;2024-01-30T16:55:08;7.40;99.90
19892;DHT22;10108;50.142;8.724;2024-01-30T16:57:55;7.40;99.90
19892;DHT22;10108;50.142;8.724;2024-01-30T17:00:41;7.40;99.90
19892;DHT22;10108;50.142;8.724;2024-01-30T17:03:28;7.40;99.90
19892;DHT22;10108;50.142;8.724;2024-01-30T17:06:17;7.40;99.90
19892;DHT22;10108;50.142;8.724;2024-01-30T17:09:03;7.30;99.90
19892;DHT22;10108;50.142;8.724;2024-01-30T17:11:51;7.30;99.90
19892;DHT22;10108;50.142;8.724;2024-01-30T17:14:38;7.30;99.90
19892;DHT22;10108;50.142;8.724;2024-01-30T17:17:27;7.30;99.90
19892;DHT22;10108;50.142;8.724;2024-01-30T17:20:13;7.30;99.90
19892;DHT22;10108;50.142;8.724;2024-01-30T17:23:00;7.30;99.90
19892;DHT22;10108;50.142;8.724;2024-01-30T17:25:48;7.30;99.90
19892;DHT22;10108;50.142;8.724;2024-01-30T17:28:38;7.30;99.90
19892;DHT22;10108;50.142;8.724;2024-01-30T17:31:25;7.30;99.90
19892;DHT22;10108;50.142;8.724;2024-01-30T17:34:12;7.30;99.90
19892;DHT22;10108;50.142;8.724;2024-01-30T17:36:59;7.30;99.90
19892;DHT22;10108;50.142;8.724;2024-01-30T17:39:46;7.30;99.90
19892;DHT22;10108;50.142;8.724;2024-01-30T17:42:34;7.30;99.90
19892;DHT22;10108;50.142;8.724;2024-01-30T17:45:21;7.30;99.90
19892;DHT22;10108;50.142;8.724;2024-01-30T17:48:08;7.30;99.90
19892;DHT22;10108;50.142;8.724;2024-01-30T17:50:54;7.40;99.90